Time;durP1;ratioP1;P1;durP2;ratioP2;P2;SDS_P1;SDS_P2;PMS_P1;PMS_P2;Temp;Humidity;BMP_temperature;BMP_pressure;BME280_temperature;BME280_humidity;BME280_pressure;Samples;Min_cycle;Max_cycle;Signal;HPM_P1;HPM_P2
2021/07/02 00:01:21;;;;;;;11.25;4.55;;;;;;;17.56;64.89;100037.90;2089041;84;27514;-65
2021/07/02 00:04:24;;;;;;;5.75;4.37;;;;;;;17.50;65.04;100044.69;2060128;85;29705;-65
2021/07/02 00:07:26;;;;;;;7.62;5.00;;;;;;;17.36;65.24;100024.20;2088103;84;31178;-65
2021/07/02 00:10:28;;;;;;;5.17;4.30;;;;;;;17.26;65.29;100020.03;2088044;84;33806;-65
2021/07/02 00:13:29;;;;;;;5.45;4.97;;;;;;;17.32;65.35;100040.32;2094904;85;29703;-64
2021/07/02 00:16:33;;;;;;;6.80;4.50;;;;;;;17.26;65.50;100042.16;2098764;84;27508;-64
2021/07/02 00:19:35;;;;;;;4.60;4.20;;;;;;;17.18;65.69;100042.80;2100482;84;28793;-65
2021/07/02 00:22:37;;;;;;;5.35;4.12;;;;;;;17.12;65.83;100037.91;2098869;83;31007;-65
2021/07/02 00:25:38;;;;;;;6.92;3.80;;;;;;;17.06;65.81;100037.88;2093281;84;32997;-65
2021/07/02 00:28:40;;;;;;;7.90;4.42;;;;;;;17.01;66.15;100036.91;2093802;85;29803;-65
2021/07/02 00:31:42;;;;;;;5.30;4.80;;;;;;;16.98;66.08;100044.42;2096753;84;27617;-65
2021/07/02 00:34:44;;;;;;;4.92;4.33;;;;;;;16.93;66.13;100047.95;2100645;84;28653;-65
2021/07/02 00:37:45;;;;;;;5.20;4.70;;;;;;;16.88;66.26;100046.98;2100731;84;31012;-65
2021/07/02 00:40:47;;;;;;;5.97;4.50;;;;;;;16.83;66.35;100043.77;2100148;84;32976;-65
2021/07/02 00:43:54;;;;;;;6.95;4.92;;;;;;;16.76;66.33;100050.17;2100573;84;30342;-64
2021/07/02 00:46:56;;;;;;;5.70;4.20;;;;;;;16.69;66.41;100049.80;2100751;83;27480;-65
2021/07/02 00:49:58;;;;;;;9.45;5.37;;;;;;;16.51;66.50;100023.73;2100652;84;29401;-64
2021/07/02 00:52:59;;;;;;;9.23;4.08;;;;;;;16.40;66.44;100023.70;2095027;84;31000;-64
2021/07/02 00:56:01;;;;;;;5.37;4.00;;;;;;;16.45;66.47;100041.78;2093735;85;33006;-64
2021/07/02 00:59:03;;;;;;;4.47;3.55;;;;;;;16.40;66.62;100046.20;2093775;85;29661;-64
2021/07/02 01:02:05;;;;;;;5.37;4.53;;;;;;;16.36;66.72;100042.52;2093858;84;27492;-65
2021/07/02 01:05:08;;;;;;;8.30;4.30;;;;;;;16.33;66.79;100040.05;2093784;85;28599;-64
2021/07/02 01:08:10;;;;;;;6.03;4.33;;;;;;;16.29;66.85;100043.97;2093856;85;31062;-66
2021/07/02 01:11:13;;;;;;;6.10;4.80;;;;;;;16.25;66.88;100033.89;2094081;84;33609;-64
2021/07/02 01:14:15;;;;;;;4.83;4.40;;;;;;;16.19;66.87;100035.23;2094099;84;29599;-64
2021/07/02 01:17:16;;;;;;;5.30;4.45;;;;;;;16.15;67.02;100041.85;2094211;85;27849;-64
2021/07/02 01:20:19;;;;;;;6.65;5.05;;;;;;;16.10;67.07;100042.69;2094086;85;28758;-65
2021/07/02 01:23:21;;;;;;;5.97;4.83;;;;;;;16.03;67.14;100040.11;2100085;84;30979;-64
2021/07/02 01:26:23;;;;;;;7.17;5.15;;;;;;;15.95;67.19;100037.48;2100914;84;33020;-65
2021/07/02 01:29:25;;;;;;;4.75;4.25;;;;;;;15.90;67.29;100038.83;2100933;84;30315;-64
2021/07/02 01:32:27;;;;;;;6.15;4.50;;;;;;;15.86;67.40;100032.80;2100525;84;27512;-64
2021/07/02 01:35:29;;;;;;;6.37;4.45;;;;;;;15.83;67.52;100030.30;2100938;83;28614;-64
2021/07/02 01:38:31;;;;;;;6.15;4.67;;;;;;;15.80;67.65;100033.22;2100930;83;31181;-65
2021/07/02 01:41:33;;;;;;;7.15;4.85;;;;;;;15.77;67.73;100031.62;2100370;84;32381;-64
2021/07/02 01:44:36;;;;;;;11.28;5.05;;;;;;;15.75;67.79;100024.60;2100915;84;29600;-64
2021/07/02 01:47:37;;;;;;;9.13;4.17;;;;;;;15.73;67.88;100021.15;2101038;83;27516;-64
2021/07/02 01:50:39;;;;;;;6.83;3.77;;;;;;;15.70;67.92;100028.16;2100951;83;28620;-64
2021/07/02 01:53:41;;;;;;;5.25;3.92;;;;;;;15.65;67.99;100024.43;2094649;84;30649;-64
2021/07/02 01:56:48;;;;;;;5.12;3.95;;;;;;;15.62;68.04;100028.23;2094325;84;33035;-64
2021/07/02 01:59:47;;;;;;;7.70;4.40;;;;;;;15.59;68.05;100031.16;2094195;85;29673;-65
2021/07/02 02:02:49;;;;;;;6.92;4.10;;;;;;;15.57;68.17;100029.56;2096980;84;27751;-65
2021/07/02 02:05:51;;;;;;;5.95;4.05;;;;;;;15.57;68.22;100030.41;2101102;84;28728;-64
2021/07/02 02:08:53;;;;;;;5.65;4.40;;;;;;;15.57;68.31;100030.41;2108187;83;31004;-64
2021/07/02 02:11:55;;;;;;;5.50;3.90;;;;;;;15.56;68.31;100031.89;2122949;83;33022;-64
2021/07/02 02:14:57;;;;;;;6.22;3.70;;;;;;;15.53;68.33;100034.34;2093753;84;29675;-64
2021/07/02 02:18:00;;;;;;;4.45;4.05;;;;;;;15.50;68.30;100034.56;2098744;83;27548;-64
2021/07/02 02:21:02;;;;;;;4.47;4.00;;;;;;;15.46;68.33;100042.52;2084938;84;28708;-64
2021/07/02 02:24:05;;;;;;;7.95;3.58;;;;;;;15.39;68.41;100036.71;2101249;83;31082;-65
2021/07/02 02:27:06;;;;;;;4.33;3.37;;;;;;;15.33;68.48;100030.41;2125096;83;32921;-64
2021/07/02 02:30:09;;;;;;;4.30;3.90;;;;;;;15.29;68.60;100037.03;2124830;83;29748;-64
2021/07/02 02:33:13;;;;;;;5.30;4.08;;;;;;;15.28;68.66;100044.25;2113146;83;27494;-72
2021/07/02 02:36:16;;;;;;;5.25;3.65;;;;;;;15.24;68.81;100043.24;2098222;83;28782;-64
2021/07/02 02:39:18;;;;;;;5.80;4.58;;;;;;;15.19;68.87;100043.09;2101058;84;31864;-64
2021/07/02 02:42:20;;;;;;;4.62;3.77;;;;;;;15.16;69.00;100040.61;2100069;83;33107;-70
2021/07/02 02:45:22;;;;;;;5.70;4.00;;;;;;;15.15;69.11;100034.83;2097409;83;29596;-64
2021/07/02 02:48:25;;;;;;;7.42;5.25;;;;;;;15.12;69.21;100036.44;2105410;83;27732;-65
2021/07/02 02:51:27;;;;;;;7.33;4.33;;;;;;;15.10;69.29;100037.50;2136889;83;28599;-64
2021/07/02 02:54:29;;;;;;;6.72;4.17;;;;;;;15.09;69.39;100036.65;2099697;82;31648;-65
2021/07/02 02:57:32;;;;;;;6.80;4.60;;;;;;;15.09;69.47;100042.52;2094266;85;33813;-65
2021/07/02 03:00:34;;;;;;;7.65;4.78;;;;;;;15.07;69.48;100045.81;2094482;85;29707;-65
2021/07/02 03:03:37;;;;;;;7.33;4.42;;;;;;;15.08;69.60;100040.32;2097809;84;27684;-64
2021/07/02 03:06:39;;;;;;;5.97;4.55;;;;;;;15.06;69.63;100037.37;2101062;84;28667;-64
2021/07/02 03:09:42;;;;;;;8.15;5.85;;;;;;;15.04;69.70;100041.51;2101007;84;30626;-65
2021/07/02 03:12:45;;;;;;;5.03;4.05;;;;;;;15.03;69.76;100043.83;2100548;83;32949;-65
2021/07/02 03:15:51;;;;;;;5.67;3.80;;;;;;;15.04;70.00;100038.81;2100659;83;29701;-65
2021/07/02 03:18:53;;;;;;;7.08;4.80;;;;;;;15.04;69.99;100035.64;2101099;84;27435;-66
2021/07/02 03:21:59;;;;;;;6.33;4.83;;;;;;;15.08;70.08;100040.32;2101129;84;28663;-66
2021/07/02 03:25:03;;;;;;;7.40;5.12;;;;;;;15.12;70.11;100046.34;2094786;84;31010;-66
2021/07/02 03:28:09;;;;;;;8.08;4.85;;;;;;;15.16;70.14;100045.16;2094658;84;33005;-65
2021/07/02 03:31:12;;;;;;;7.12;5.00;;;;;;;15.19;70.24;100047.64;2094667;85;30219;-64
2021/07/02 03:34:16;;;;;;;6.08;4.58;;;;;;;15.20;70.29;100056.11;2094922;84;27522;-65
2021/07/02 03:37:18;;;;;;;5.70;4.67;;;;;;;15.23;70.35;100051.81;2056111;86;28660;-65
2021/07/02 03:40:20;;;;;;;6.92;4.53;;;;;;;15.28;70.37;100055.55;2056132;86;30991;-65
2021/07/02 03:43:23;;;;;;;7.90;4.40;;;;;;;15.37;70.50;100053.50;2058441;86;33891;-65
2021/07/02 03:46:26;;;;;;;7.05;4.20;;;;;;;15.44;70.43;100048.51;2062413;86;30055;-65
2021/07/02 03:49:28;;;;;;;7.03;4.50;;;;;;;15.53;70.49;100050.55;2062416;86;27546;-65
2021/07/02 03:52:30;;;;;;;7.75;4.28;;;;;;;15.63;70.43;100050.72;2061946;86;28623;-66
2021/07/02 03:55:32;;;;;;;6.67;4.47;;;;;;;15.71;70.41;100042.04;2062313;86;31108;-65
2021/07/02 03:58:34;;;;;;;6.90;4.58;;;;;;;15.80;70.33;100035.42;2062206;86;32907;-64
2021/07/02 04:01:37;;;;;;;9.13;4.45;;;;;;;15.90;70.28;100036.13;2089150;84;29663;-65
2021/07/02 04:04:40;;;;;;;4.90;4.40;;;;;;;15.97;70.06;100042.76;2073634;84;27708;-65
2021/07/02 04:08:19;;;;;;;8.08;4.33;;;;;;;16.01;69.98;100047.46;2061793;86;28745;-65
2021/07/02 04:11:13;;;;;;;7.55;4.12;;;;;;;16.06;69.91;100050.18;2034894;86;27844;-65
2021/07/02 04:14:15;;;;;;;7.10;4.85;;;;;;;16.14;69.89;100059.05;2062392;86;32936;-65
2021/07/02 04:17:18;;;;;;;6.15;3.60;;;;;;;16.24;69.81;100053.29;2055778;86;29612;-65
2021/07/02 04:20:21;;;;;;;12.40;4.87;;;;;;;16.37;69.85;100061.31;2049947;86;27591;-65
2021/07/02 04:23:23;;;;;;;6.30;4.47;;;;;;;16.52;69.83;100059.27;2050049;86;29648;-65
2021/07/02 04:26:25;;;;;;;7.53;4.72;;;;;;;16.69;69.88;100058.42;2049835;86;31839;-65
2021/07/02 04:29:27;;;;;;;5.28;4.28;;;;;;;16.94;69.72;100054.61;2051724;86;32992;-65
2021/07/02 04:32:29;;;;;;;7.28;4.30;;;;;;;17.26;69.46;100052.52;2052342;86;29624;-65
2021/07/02 04:35:34;;;;;;;7.10;4.33;;;;;;;17.62;69.22;100048.23;2052746;86;27595;-65
2021/07/02 04:38:36;;;;;;;5.37;4.37;;;;;;;17.82;68.38;100029.45;2052317;86;29604;-65
2021/07/02 04:41:38;;;;;;;5.62;4.10;;;;;;;18.26;68.43;100047.85;2092404;84;31003;-64
2021/07/02 04:44:41;;;;;;;4.80;3.98;;;;;;;18.56;67.93;100041.26;2095553;83;33733;-64
2021/07/02 04:47:45;;;;;;;6.58;4.00;;;;;;;18.75;67.45;100044.55;2099530;83;29716;-65
2021/07/02 04:50:48;;;;;;;7.20;3.67;;;;;;;18.88;66.93;100052.48;2093368;85;27528;-64
2021/07/02 04:53:50;;;;;;;5.55;3.87;;;;;;;18.99;66.75;100051.05;2116826;83;28601;-65
2021/07/02 04:56:53;;;;;;;5.72;3.67;;;;;;;19.07;66.35;100061.22;2130449;83;31166;-65
2021/07/02 04:59:59;;;;;;;4.58;2.92;;;;;;;19.14;66.13;100055.61;2104126;83;33034;-65
2021/07/02 05:03:00;;;;;;;6.40;3.00;;;;;;;19.26;65.80;100057.73;2100513;83;29758;-65
2021/07/02 05:06:03;;;;;;;3.12;2.85;;;;;;;19.37;65.36;100047.22;2100738;83;27691;-65
2021/07/02 05:09:07;;;;;;;2.95;2.40;;;;;;;19.89;66.07;100056.05;2100263;83;29611;-65
2021/07/02 05:12:11;;;;;;;6.90;2.90;;;;;;;20.57;65.26;100060.19;2100712;84;31069;-65
2021/07/02 05:15:14;;;;;;;7.45;2.60;;;;;;;21.09;64.55;100059.25;2100822;83;32977;-65
2021/07/02 05:18:16;;;;;;;4.95;3.00;;;;;;;21.93;63.31;100061.02;2099450;84;30237;-65
2021/07/02 05:21:18;;;;;;;4.40;2.98;;;;;;;22.89;62.40;100072.52;2100647;83;27500;-65
2021/07/02 05:24:22;;;;;;;4.70;3.25;;;;;;;23.63;60.91;100069.77;2100664;84;28667;-65
2021/07/02 05:27:32;;;;;;;3.27;2.98;;;;;;;24.37;59.75;100065.74;2100552;83;31644;-65
2021/07/02 05:30:35;;;;;;;3.95;3.12;;;;;;;25.24;57.69;100060.08;2093156;84;33677;-65
2021/07/02 05:33:38;;;;;;;3.42;2.98;;;;;;;26.06;56.95;100060.63;2093748;85;29682;-65
2021/07/02 05:36:40;;;;;;;2.90;2.70;;;;;;;26.70;53.99;100064.88;2095578;83;27620;-66
2021/07/02 05:39:42;;;;;;;3.98;3.02;;;;;;;27.23;53.45;100074.96;2100406;83;29303;-66
2021/07/02 05:42:45;;;;;;;3.50;2.95;;;;;;;27.81;51.98;100070.05;2100865;83;31163;-65
2021/07/02 05:46:15;;;;;;;3.45;3.15;;;;;;;28.08;50.81;100074.47;2100161;84;32948;-66
2021/07/02 05:49:04;;;;;;;;;;;;;;;28.49;50.26;100062.26;2072289;81;27714;-65
2021/07/02 05:53:10;;;;;;;5.50;3.15;;;;;;;28.88;48.52;100053.62;2023941;86;27542;-65
2021/07/02 05:55:25;;;;;;;3.15;2.70;;;;;;;29.06;47.57;100053.10;1980662;83;27266;-63
2021/07/02 05:58:28;;;;;;;2.47;1.90;;;;;;;29.21;47.10;100055.19;2152383;82;31870;-66
